Time;durP1;ratioP1;P1;durP2;ratioP2;P2;SDS_P1;SDS_P2;PMS_P1;PMS_P2;Temp;Humidity;BMP_temperature;BMP_pressure;BME280_temperature;BME280_humidity;BME280_pressure;Samples;Min_cycle;Max_cycle;Signal;HPM_P1;HPM_P2
2022/08/04 00:01:44;;;;;;;8.63;7.30;;;;;;;20.41;94.14;99717.83;1809914;78;21153;-79
2022/08/04 00:04:15;;;;;;;11.40;8.35;;;;;;;20.44;94.21;99710.63;1807782;78;21310;-79
2022/08/04 00:07:05;;;;;;;8.18;7.50;;;;;;;20.39;94.19;99713.20;1823176;78;21013;-77
2022/08/04 00:09:40;;;;;;;8.88;7.22;;;;;;;20.37;94.30;99713.96;1822203;78;20989;-79
2022/08/04 00:12:07;;;;;;;7.95;7.30;;;;;;;20.46;93.97;99715.80;1832379;77;21088;-78
2022/08/04 00:14:37;;;;;;;9.05;8.25;;;;;;;20.47;93.70;99719.59;1819734;78;21147;-79
2022/08/04 00:17:05;;;;;;;8.15;7.35;;;;;;;20.42;93.81;99719.48;1829082;78;21575;-80
2022/08/04 00:19:43;;;;;;;8.83;7.97;;;;;;;20.46;93.84;99719.84;1816900;78;21104;-79
2022/08/04 00:22:10;;;;;;;9.58;8.68;;;;;;;20.51;93.77;99714.02;1803496;78;21036;-80
2022/08/04 00:24:37;;;;;;;9.38;8.35;;;;;;;20.50;93.71;99717.78;1797699;78;21201;-79
2022/08/04 00:27:04;;;;;;;10.00;7.55;;;;;;;20.46;93.94;99717.15;1809946;78;21151;-80
2022/08/04 00:29:32;;;;;;;9.15;7.78;;;;;;;20.50;93.86;99711.04;1816864;77;21073;-81
2022/08/04 00:31:58;;;;;;;9.25;8.45;;;;;;;20.58;93.61;99711.22;1813190;77;21012;-82
2022/08/04 00:34:27;;;;;;;9.50;8.60;;;;;;;20.55;93.52;99709.82;1806974;78;21068;-80
2022/08/04 00:36:55;;;;;;;8.35;7.67;;;;;;;20.50;93.66;99719.13;1810043;78;20998;-84
2022/08/04 00:39:21;;;;;;;9.28;8.38;;;;;;;20.54;93.62;99718.14;1816103;77;21096;-81
2022/08/04 00:42:22;;;;;;;10.63;9.38;;;;;;;20.59;93.37;99723.16;1803346;78;21056;-81
2022/08/04 00:45:17;;;;;;;10.98;9.83;;;;;;;20.57;93.35;99721.70;1815895;78;21075;-85
2022/08/04 00:48:40;;;;;;;10.20;9.23;;;;;;;20.48;93.48;99722.59;1836683;77;21504;-82
2022/08/04 00:51:42;;;;;;;11.03;9.88;;;;;;;20.50;93.50;99725.88;1805107;78;21029;-81
2022/08/04 00:54:20;;;;;;;10.23;9.43;;;;;;;20.51;93.63;99724.81;1818799;78;21199;-80
2022/08/04 00:57:02;;;;;;;11.05;9.90;;;;;;;20.45;94.06;99734.37;1822191;78;21029;-82
2022/08/04 00:59:51;;;;;;;11.18;10.05;;;;;;;20.47;94.10;99734.97;1821065;78;21095;-81
2022/08/04 01:03:04;;;;;;;11.80;10.63;;;;;;;20.53;93.85;99728.13;1814592;78;21080;-82
2022/08/04 01:05:53;;;;;;;12.82;9.00;;;;;;;20.50;94.00;99733.97;1830712;78;21044;-83
2022/08/04 01:08:40;;;;;;;11.50;9.08;;;;;;;20.52;94.16;99735.09;1819919;78;22501;-80
2022/08/04 01:11:14;;;;;;;12.63;10.15;;;;;;;20.57;93.76;99741.94;1834282;78;21015;-81
2022/08/04 01:14:24;;;;;;;11.90;10.80;;;;;;;20.53;93.89;99745.66;1831191;78;21068;-81
2022/08/04 01:16:52;;;;;;;9.30;8.58;;;;;;;20.50;94.02;99746.66;1822070;78;21045;-83
2022/08/04 01:19:45;;;;;;;12.00;9.75;;;;;;;20.52;93.77;99732.40;1827297;78;21533;-82
2022/08/04 01:22:33;;;;;;;10.93;9.55;;;;;;;20.53;93.96;99736.72;1827814;78;21768;-82
2022/08/04 01:26:51;;;;;;;12.15;10.95;;;;;;;20.47;94.45;99738.48;1866292;75;22342;-82
2022/08/04 01:29:20;;;;;;;10.38;9.38;;;;;;;20.45;94.32;99743.28;1812509;77;21037;-80
2022/08/04 01:32:21;;;;;;;11.20;10.10;;;;;;;20.51;94.15;99744.23;1812604;77;21106;-83
2022/08/04 01:34:56;;;;;;;12.00;10.70;;;;;;;20.49;94.24;99744.45;1818815;77;21493;-82
2022/08/04 01:37:49;;;;;;;11.70;10.70;;;;;;;20.43;94.41;99744.86;1824392;77;21104;-82
2022/08/04 01:40:15;;;;;;;11.50;10.38;;;;;;;20.48;94.33;99743.37;1816912;77;21064;-81
2022/08/04 01:42:44;;;;;;;11.18;10.03;;;;;;;20.54;94.14;99744.59;1839405;76;21048;-80
2022/08/04 01:45:12;;;;;;;11.00;10.00;;;;;;;20.52;94.21;99751.29;1829388;77;21088;-79
2022/08/04 01:47:52;;;;;;;13.00;9.38;;;;;;;20.48;94.21;99747.41;1830560;77;20981;-82
2022/08/04 01:50:19;;;;;;;11.20;10.00;;;;;;;20.51;94.19;99738.30;1836697;77;21000;-80
2022/08/04 01:52:46;;;;;;;11.38;10.03;;;;;;;20.54;94.17;99741.89;1797896;77;20994;-80
2022/08/04 01:55:15;;;;;;;11.93;10.75;;;;;;;20.49;94.14;99748.51;1815981;77;21056;-79
2022/08/04 01:57:43;;;;;;;12.05;10.80;;;;;;;20.42;94.42;99749.17;1833306;76;21196;-78
2022/08/04 02:00:13;;;;;;;10.80;9.80;;;;;;;20.49;94.25;99742.30;1844081;77;21523;-79
2022/08/04 02:02:39;;;;;;;13.88;10.72;;;;;;;20.50;94.18;99747.47;1817401;77;21033;-80
2022/08/04 02:05:08;;;;;;;11.88;10.78;;;;;;;20.46;94.23;99735.50;1840198;77;21053;-80
2022/08/04 02:07:46;;;;;;;10.85;9.73;;;;;;;20.43;94.31;99738.66;1808571;77;20994;-77
2022/08/04 02:10:30;;;;;;;10.93;9.90;;;;;;;20.47;94.32;99741.71;1832850;77;21230;-79
2022/08/04 02:13:32;;;;;;;13.50;11.70;;;;;;;20.51;94.17;99734.79;1848175;77;21068;-78
2022/08/04 02:16:06;;;;;;;12.53;11.03;;;;;;;20.45;94.27;99736.54;1809310;77;20998;-77
2022/08/04 02:18:56;;;;;;;14.30;11.53;;;;;;;20.43;94.34;99737.30;1839279;77;21046;-78
2022/08/04 02:21:24;;;;;;;12.90;11.80;;;;;;;20.47;94.17;99730.38;1835173;76;21041;-79
2022/08/04 02:23:53;;;;;;;14.50;11.48;;;;;;;20.40;94.32;99737.78;1822405;77;21961;-80
2022/08/04 02:26:20;;;;;;;11.68;10.68;;;;;;;20.34;94.56;99731.95;1836130;77;21545;-78
2022/08/04 02:28:55;;;;;;;12.95;11.93;;;;;;;20.38;94.54;99738.02;1840178;77;21462;-78
2022/08/04 02:31:38;;;;;;;13.50;12.23;;;;;;;20.39;94.69;99738.83;1824281;76;21055;-75
2022/08/04 02:34:24;;;;;;;13.15;11.83;;;;;;;20.35;94.73;99736.30;1818289;77;20989;-78
2022/08/04 02:36:51;;;;;;;14.00;12.63;;;;;;;20.37;94.77;99739.59;1825695;77;21295;-78
2022/08/04 02:39:21;;;;;;;13.10;11.95;;;;;;;20.42;94.74;99739.72;1843682;77;21116;-81
2022/08/04 02:41:48;;;;;;;14.53;13.03;;;;;;;20.40;94.86;99735.09;1822156;77;21041;-76
2022/08/04 02:44:21;;;;;;;12.85;11.55;;;;;;;20.39;95.10;99737.48;1823703;77;21041;-77
2022/08/04 02:46:50;;;;;;;;;;;;;;;20.48;94.62;99731.23;1849329;77;21469;-80
2022/08/04 02:49:16;;;;;;;15.72;14.23;;;;;;;20.53;94.35;99732.67;1831656;77;21472;-81
2022/08/04 02:51:52;;;;;;;14.85;13.43;;;;;;;20.47;94.58;99730.38;1853087;77;20994;-80
2022/08/04 02:54:26;;;;;;;13.22;11.88;;;;;;;20.43;94.64;99727.33;1840124;76;21064;-78
2022/08/04 02:56:53;;;;;;;14.13;11.93;;;;;;;20.49;94.54;99729.62;1829549;77;21170;-79
2022/08/04 02:59:22;;;;;;;14.10;12.68;;;;;;;20.54;94.42;99733.80;1806630;77;21029;-81
2022/08/04 03:01:48;;;;;;;15.43;13.93;;;;;;;20.55;94.54;99734.61;1836717;77;21218;-80
2022/08/04 03:04:39;;;;;;;14.60;13.25;;;;;;;20.52;94.39;99731.86;1842902;77;21057;-78
2022/08/04 03:07:46;;;;;;;17.98;12.43;;;;;;;20.55;94.36;99733.27;1818077;76;21064;-81
2022/08/04 03:10:56;;;;;;;15.60;14.10;;;;;;;20.62;94.10;99732.13;1820812;77;21135;-80
2022/08/04 03:13:40;;;;;;;15.95;13.40;;;;;;;20.60;94.35;99726.14;1809063;78;21533;-82
2022/08/04 03:16:48;;;;;;;16.50;13.03;;;;;;;20.59;94.36;99723.64;1827466;77;21071;-82
2022/08/04 03:19:56;;;;;;;15.18;13.50;;;;;;;20.65;94.11;99720.06;1828014;77;21017;-80
2022/08/04 03:22:49;;;;;;;14.68;13.22;;;;;;;20.65;93.76;99721.91;1851642;77;21176;-80
2022/08/04 03:25:50;;;;;;;13.50;12.23;;;;;;;20.53;94.14;99722.73;1790507;77;20978;-79
2022/08/04 03:28:43;;;;;;;15.88;13.50;;;;;;;20.58;94.23;99725.52;1802115;78;21033;-77
2022/08/04 03:31:25;;;;;;;;;;;;;;;20.61;94.07;99724.28;1800745;77;21514;-81
2022/08/04 03:34:09;;;;;;;15.03;13.50;;;;;;;20.57;94.21;99727.95;1800442;77;20309;-80
2022/08/04 03:36:47;;;;;;;12.70;11.65;;;;;;;20.55;94.17;99725.17;1825465;77;21037;-81
2022/08/04 03:39:50;;;;;;;14.58;13.18;;;;;;;20.60;94.07;99722.62;1831865;77;21006;-80
2022/08/04 03:42:59;;;;;;;17.10;14.70;;;;;;;20.58;94.12;99732.27;1832964;77;21065;-82
2022/08/04 03:46:01;;;;;;;13.68;12.40;;;;;;;20.49;94.35;99726.92;1823303;77;21531;-79
2022/08/04 03:49:00;;;;;;;14.03;12.75;;;;;;;20.52;94.40;99731.05;1816605;78;21037;-80
2022/08/04 03:55:00;;;;;;;15.85;13.55;;;;;;;20.47;94.67;99731.73;1805591;77;21017;-81
2022/08/04 03:57:38;;;;;;;15.60;14.10;;;;;;;20.43;94.92;99738.66;1819602;77;21491;-81
2022/08/04 04:00:18;;;;;;;16.02;13.38;;;;;;;20.53;94.74;99737.57;1807110;77;21584;-81
2022/08/04 04:03:11;;;;;;;16.50;14.80;;;;;;;20.57;94.80;99738.74;1813690;77;21508;-79
2022/08/04 04:06:04;;;;;;;14.98;13.60;;;;;;;20.56;94.68;99742.48;1813408;77;21462;-80
2022/08/04 04:08:46;;;;;;;15.80;14.05;;;;;;;20.61;94.61;99745.88;1826055;77;21006;-80
2022/08/04 04:11:36;;;;;;;15.78;14.28;;;;;;;20.67;94.35;99740.04;1847754;76;21020;-80
2022/08/04 04:14:40;;;;;;;15.63;14.03;;;;;;;20.68;94.54;99743.05;1815574;77;21490;-80
2022/08/04 04:17:28;;;;;;;15.30;13.85;;;;;;;20.69;94.27;99742.82;1805904;77;21080;-82
2022/08/04 04:20:22;;;;;;;15.28;13.72;;;;;;;20.78;94.41;99752.72;1809683;77;21565;-80
2022/08/04 04:23:11;;;;;;;15.85;14.10;;;;;;;20.80;94.71;99746.05;1808470;77;21058;-80
2022/08/04 04:25:55;;;;;;;16.00;14.40;;;;;;;20.88;94.20;99751.63;1819830;77;20977;-83
2022/08/04 04:28:39;;;;;;;16.45;14.85;;;;;;;20.96;93.39;99750.45;1850309;77;21181;-81
2022/08/04 04:31:34;;;;;;;16.05;13.93;;;;;;;20.95;93.53;99754.19;1824028;76;21017;-82
2022/08/04 04:34:42;;;;;;;15.93;14.33;;;;;;;20.92;93.23;99757.35;1828583;76;21505;-81
2022/08/04 04:37:22;;;;;;;16.35;14.73;;;;;;;21.00;93.05;99750.27;1816014;77;21072;-82
2022/08/04 04:40:08;;;;;;;17.77;15.78;;;;;;;21.05;93.13;99754.41;1820216;76;21057;-82
2022/08/04 04:42:49;;;;;;;16.60;14.93;;;;;;;21.04;92.91;99751.97;1823048;76;22839;-83
2022/08/04 04:45:26;;;;;;;17.80;15.03;;;;;;;21.09;92.73;99756.92;1826467;76;21502;-80
2022/08/04 04:48:18;;;;;;;16.85;15.25;;;;;;;21.14;92.28;99752.18;1815696;76;21062;-84
2022/08/04 04:51:29;;;;;;;17.32;15.48;;;;;;;21.06;92.41;99757.42;1830122;76;21041;-84
2022/08/04 04:54:33;;;;;;;16.32;14.70;;;;;;;21.06;92.67;99758.77;1824245;77;21106;-85
2022/08/04 04:57:14;;;;;;;;;;;;;;;21.16;92.22;99759.52;1827370;76;21830;-83
2022/08/04 04:59:58;;;;;;;17.05;15.18;;;;;;;21.11;92.13;99753.48;1833531;76;20175;-85
2022/08/04 05:02:55;;;;;;;15.38;13.88;;;;;;;21.00;92.27;99752.97;1832596;77;21063;-85
2022/08/04 05:05:59;;;;;;;16.93;14.50;;;;;;;21.05;92.32;99756.30;1800426;77;21051;-84
2022/08/04 05:08:34;;;;;;;17.25;15.43;;;;;;;21.04;92.26;99751.43;1821113;77;21567;-84
2022/08/04 05:11:42;;;;;;;16.32;14.60;;;;;;;20.96;92.38;99758.02;1828071;76;22245;-84
2022/08/04 05:14:31;;;;;;;18.10;14.85;;;;;;;20.96;92.27;99760.72;1819418;76;21064;-83
2022/08/04 05:17:12;;;;;;;17.17;15.58;;;;;;;20.96;92.20;99761.25;1820997;76;21005;-82
2022/08/04 05:20:12;;;;;;;16.25;14.15;;;;;;;20.86;92.39;99763.70;1807680;76;21017;-82
2022/08/04 05:23:16;;;;;;;16.52;14.93;;;;;;;20.84;92.53;99765.28;1826489;76;20933;-83
2022/08/04 05:26:03;;;;;;;;;;;;;;;20.91;92.65;99762.48;1857613;77;21127;-78
2022/08/04 05:28:44;;;;;;;20.35;16.85;;;;;;;20.89;92.59;99764.59;1800877;77;20139;-83
2022/08/04 05:31:14;;;;;;;16.62;14.47;;;;;;;20.86;92.81;99771.80;1819975;77;20917;-84
2022/08/04 05:33:55;;;;;;;18.80;15.53;;;;;;;20.93;92.68;99773.32;1838579;77;20970;-83
2022/08/04 05:36:25;;;;;;;17.95;16.07;;;;;;;20.98;92.79;99769.40;1818892;77;20970;-84
2022/08/04 05:38:53;;;;;;;18.48;15.75;;;;;;;20.98;92.79;99774.80;1815884;78;21492;-84
2022/08/04 05:41:20;;;;;;;17.32;15.58;;;;;;;21.01;92.55;99777.05;1796666;77;21564;-82
2022/08/04 05:43:47;;;;;;;17.15;15.43;;;;;;;21.04;92.46;99775.73;1807898;78;21009;-83
2022/08/04 05:46:14;;;;;;;17.77;15.88;;;;;;;21.04;92.57;99782.48;1823665;78;21073;-83
2022/08/04 05:48:40;;;;;;;17.87;16.27;;;;;;;21.00;92.48;99784.84;1818202;77;21007;-83
2022/08/04 05:51:08;;;;;;;17.40;15.72;;;;;;;21.00;92.55;99784.84;1847745;77;21167;-84
2022/08/04 05:53:35;;;;;;;17.35;15.63;;;;;;;21.09;92.41;99791.22;1852296;76;21385;-84
2022/08/04 05:56:02;;;;;;;18.42;16.67;;;;;;;21.12;92.44;99788.88;1806569;77;21557;-83
2022/08/04 05:58:31;;;;;;;18.12;16.27;;;;;;;21.12;92.28;99790.77;1824985;77;21011;-82
2022/08/04 06:00:59;;;;;;;16.32;14.70;;;;;;;21.20;92.38;99787.69;1824613;77;21033;-84
2022/08/04 06:03:26;;;;;;;17.82;16.07;;;;;;;21.33;91.97;99787.98;1819218;78;21278;-83
2022/08/04 06:05:52;;;;;;;16.65;15.10;;;;;;;21.36;91.47;99783.44;1820485;77;20960;-84
2022/08/04 06:08:19;;;;;;;17.10;15.50;;;;;;;21.35;91.24;99783.97;1817091;77;21064;-84
2022/08/04 06:10:46;;;;;;;17.48;15.80;;;;;;;21.41;91.38;99786.25;1828378;77;21033;-82
2022/08/04 06:13:14;;;;;;;17.07;15.35;;;;;;;21.51;91.26;99791.08;1819299;78;20976;-83
2022/08/04 06:15:42;;;;;;;18.23;16.48;;;;;;;21.54;90.82;99781.97;1837505;77;21107;-85
2022/08/04 06:18:09;;;;;;;15.65;14.07;;;;;;;21.52;90.66;99784.09;1822259;77;20958;-85
2022/08/04 06:20:36;;;;;;;16.67;14.93;;;;;;;21.61;90.98;99785.87;1831237;77;21024;-82
2022/08/04 06:23:06;;;;;;;16.15;14.68;;;;;;;21.79;90.67;99790.30;1838988;77;21348;-84
2022/08/04 06:25:42;;;;;;;18.20;16.30;;;;;;;21.89;90.52;99785.62;1836725;77;21080;-83
2022/08/04 06:28:09;;;;;;;18.10;14.38;;;;;;;21.95;90.21;99786.00;1817866;76;21348;-81
2022/08/04 06:30:36;;;;;;;16.75;15.13;;;;;;;22.07;89.47;99785.40;1827303;76;21040;-81
2022/08/04 06:33:12;;;;;;;17.92;15.50;;;;;;;22.21;88.92;99786.45;1822248;76;21541;-80
2022/08/04 06:35:31;;;;;;;17.73;16.02;;;;;;;22.25;88.40;99786.28;1824806;76;21036;-78
2022/08/04 06:37:58;;;;;;;16.52;14.53;;;;;;;22.24;88.38;99787.33;1827942;76;21060;-77
2022/08/04 06:40:24;;;;;;;15.80;14.38;;;;;;;22.30;88.28;99785.02;1821690;76;21115;-78
2022/08/04 06:42:51;;;;;;;18.10;16.32;;;;;;;22.43;87.95;99796.89;1831134;76;20977;-80
2022/08/04 06:45:18;;;;;;;19.37;17.32;;;;;;;22.44;87.45;99798.52;1811510;76;21086;-79
2022/08/04 06:47:44;;;;;;;18.23;16.35;;;;;;;22.41;87.25;99790.91;1824196;77;20994;-80
2022/08/04 06:50:11;;;;;;;16.77;15.23;;;;;;;22.42;87.04;99796.59;1835964;76;21556;-77
2022/08/04 06:52:38;;;;;;;18.07;16.07;;;;;;;22.50;86.95;99791.30;1817922;77;21377;-80
2022/08/04 06:55:06;;;;;;;19.80;17.55;;;;;;;22.49;87.04;99789.14;1829602;76;21069;-78
2022/08/04 06:57:34;;;;;;;16.70;15.00;;;;;;;22.49;86.65;99791.84;1819949;76;21026;-84
2022/08/04 07:00:11;;;;;;;16.87;14.98;;;;;;;22.54;86.76;99785.68;1817393;77;21048;-81
2022/08/04 07:02:47;;;;;;;17.35;15.55;;;;;;;22.66;86.31;99782.92;1817449;77;21067;-84
2022/08/04 07:05:13;;;;;;;17.42;15.85;;;;;;;22.69;86.00;99783.77;1819955;76;21475;-82
2022/08/04 07:07:40;;;;;;;15.93;14.50;;;;;;;22.69;85.99;99776.99;1813312;77;21033;-83
2022/08/04 07:10:09;;;;;;;17.17;15.50;;;;;;;22.75;85.85;99780.06;1818047;77;21010;-82
2022/08/04 07:12:38;;;;;;;16.30;14.80;;;;;;;22.84;85.29;99782.64;1828165;76;21096;-82
2022/08/04 07:15:06;;;;;;;17.87;15.93;;;;;;;22.88;84.71;99782.43;1825799;76;21048;-85
2022/08/04 07:17:36;;;;;;;17.48;15.88;;;;;;;22.85;84.49;99776.17;1824106;77;21561;-85
2022/08/04 07:20:08;;;;;;;16.87;15.28;;;;;;;22.84;84.56;99781.30;1829100;76;21870;-88
2022/08/04 07:22:38;;;;;;;16.67;14.93;;;;;;;22.92;84.53;99775.45;1834665;76;21114;-85
2022/08/04 07:25:11;;;;;;;17.47;15.90;;;;;;;23.00;84.41;99780.97;1781984;80;21036;-83
2022/08/04 07:27:38;;;;;;;18.65;16.73;;;;;;;23.02;84.05;99782.09;1774251;79;21857;-86
2022/08/04 07:30:05;;;;;;;17.10;15.45;;;;;;;23.01;84.08;99784.52;1737026;80;21846;-85
2022/08/04 07:32:32;;;;;;;16.75;15.23;;;;;;;23.02;83.87;99780.73;1743761;80;21057;-81
2022/08/04 07:34:59;;;;;;;16.80;15.18;;;;;;;23.13;84.03;99775.78;1761994;79;21092;-82
2022/08/04 07:37:25;;;;;;;19.00;17.37;;;;;;;23.17;83.27;99778.27;1771162;79;21053;-79
2022/08/04 07:39:52;;;;;;;20.10;17.00;;;;;;;23.17;82.96;99778.27;1769128;79;21064;-82
2022/08/04 07:42:20;;;;;;;18.07;16.35;;;;;;;23.19;82.74;99778.02;1772322;79;21135;-81
2022/08/04 07:44:47;;;;;;;17.60;15.88;;;;;;;23.28;82.42;99781.40;1778413;79;21036;-81
2022/08/04 07:47:13;;;;;;;17.15;15.65;;;;;;;23.42;82.62;99774.26;1789695;79;21065;-82
2022/08/04 07:49:44;;;;;;;19.27;16.70;;;;;;;23.53;82.29;99774.67;1761332;78;21050;-80
2022/08/04 07:52:10;;;;;;;17.10;15.43;;;;;;;23.61;81.63;99774.22;1757551;79;21037;-83
2022/08/04 07:54:36;;;;;;;16.75;15.30;;;;;;;23.66;81.39;99776.16;1777329;78;21342;-83
2022/08/04 07:57:03;;;;;;;16.35;14.70;;;;;;;23.74;81.12;99773.83;1760307;79;21722;-81
2022/08/04 07:59:31;;;;;;;16.50;14.87;;;;;;;23.85;80.69;99776.12;1779499;78;21017;-81
2022/08/04 08:02:01;;;;;;;15.13;13.83;;;;;;;23.88;80.28;99773.46;1774898;79;21517;-80
2022/08/04 08:04:28;;;;;;;16.75;15.15;;;;;;;23.91;79.90;99779.20;1777392;78;21087;-86
2022/08/04 08:07:16;;;;;;;14.20;12.93;;;;;;;23.97;79.94;99773.30;1776316;79;21149;-89
2022/08/04 08:09:45;;;;;;;15.13;13.43;;;;;;;24.06;79.44;99783.95;1730794;79;21713;-83
2022/08/04 08:12:12;;;;;;;15.53;13.45;;;;;;;24.20;79.21;99775.39;1778465;78;21045;-83
2022/08/04 08:14:42;;;;;;;16.10;14.58;;;;;;;24.21;79.03;99777.85;1778188;78;21069;-84
2022/08/04 08:17:12;;;;;;;15.45;14.10;;;;;;;24.22;78.46;99782.73;1772347;78;21037;-84
2022/08/04 08:19:41;;;;;;;13.43;12.15;;;;;;;24.19;78.44;99774.58;1734727;78;21141;-81
2022/08/04 08:22:10;;;;;;;14.15;12.80;;;;;;;24.27;77.95;99784.96;1777146;78;21109;-80
2022/08/04 08:24:39;;;;;;;13.83;12.53;;;;;;;24.39;77.96;99783.44;1768393;78;21107;-83
2022/08/04 08:27:05;;;;;;;14.70;13.10;;;;;;;24.44;77.61;99783.48;1770030;78;21114;-80
2022/08/04 08:29:33;;;;;;;14.20;13.00;;;;;;;24.50;77.55;99782.99;1759176;79;21111;-79
2022/08/04 08:32:01;;;;;;;14.87;13.40;;;;;;;24.58;76.01;99784.45;1756946;79;21079;-76
2022/08/04 08:34:28;;;;;;;14.15;12.80;;;;;;;24.69;76.17;99780.73;1765930;79;21074;-75
2022/08/04 08:37:32;;;;;;;14.83;13.50;;;;;;;24.88;75.89;99775.70;1762960;79;21008;-77
2022/08/04 08:40:26;;;;;;;15.93;14.33;;;;;;;25.00;75.65;99782.30;1770614;80;21355;-84
2022/08/04 08:43:31;;;;;;;15.38;13.83;;;;;;;25.07;73.96;99776.06;1751315;79;21083;-85
2022/08/04 08:46:06;;;;;;;13.25;12.13;;;;;;;25.14;74.26;99773.94;1777184;80;21129;-83
2022/08/04 08:49:01;;;;;;;14.40;13.05;;;;;;;25.21;73.01;99776.44;1758422;81;21076;-82
2022/08/04 08:52:00;;;;;;;15.63;14.18;;;;;;;25.17;73.40;99774.78;1747239;80;20980;-77
2022/08/04 08:55:12;;;;;;;13.55;12.25;;;;;;;25.18;73.49;99772.33;1742320;80;21056;-84
2022/08/04 08:58:09;;;;;;;13.15;11.85;;;;;;;25.40;73.14;99775.45;1756036;79;21076;-83
2022/08/04 09:00:46;;;;;;;15.08;13.38;;;;;;;25.58;72.87;99776.34;1777546;78;21184;-80
2022/08/04 09:03:18;;;;;;;13.70;12.37;;;;;;;25.69;72.40;99778.02;1725896;80;21047;-80
2022/08/04 09:06:25;;;;;;;14.13;12.73;;;;;;;25.82;71.75;99778.59;1752886;79;21099;-79
2022/08/04 09:09:12;;;;;;;14.50;13.30;;;;;;;25.93;71.26;99778.11;1744198;80;21099;-83
2022/08/04 09:12:06;;;;;;;13.03;11.75;;;;;;;26.07;71.37;99777.86;1763928;80;21540;-85
2022/08/04 09:15:09;;;;;;;13.45;12.25;;;;;;;26.29;71.18;99771.63;1760413;79;21274;-80
2022/08/04 09:17:56;;;;;;;13.18;12.07;;;;;;;26.54;69.93;99781.42;1769185;80;21052;-81
2022/08/04 09:20:48;;;;;;;14.38;12.95;;;;;;;26.63;69.91;99773.81;1739421;80;21081;-83
2022/08/04 09:23:41;;;;;;;14.80;13.28;;;;;;;26.80;70.75;99775.45;1776715;80;21748;-81
2022/08/04 09:26:16;;;;;;;13.95;12.33;;;;;;;27.05;69.24;99768.57;1761809;80;21052;-80
2022/08/04 09:29:08;;;;;;;13.05;11.90;;;;;;;27.48;68.12;99766.00;1752537;79;21138;-82
2022/08/04 09:31:56;;;;;;;13.33;12.10;;;;;;;27.93;66.45;99764.14;1765550;79;21042;-84
2022/08/04 09:35:18;;;;;;;12.43;11.33;;;;;;;28.33;65.59;99767.69;1767088;79;21080;-85
2022/08/04 09:38:11;;;;;;;12.80;11.70;;;;;;;28.68;65.02;99764.41;1681285;79;21087;-83
2022/08/04 09:40:56;;;;;;;;;;;;;;;28.98;63.34;99766.83;1660127;86;21113;-84
2022/08/04 09:44:02;;;;;;;12.05;10.85;;;;;;;29.07;62.47;99764.82;1664768;84;21122;-82
2022/08/04 09:46:50;;;;;;;12.18;11.18;;;;;;;29.05;62.39;99765.66;1658841;84;21115;-85
2022/08/04 09:49:24;;;;;;;12.45;11.25;;;;;;;29.26;62.09;99770.38;1663057;84;21609;-86
2022/08/04 09:52:02;;;;;;;11.80;10.70;;;;;;;29.59;61.80;99764.48;1664477;85;21501;-87
2022/08/04 09:55:01;;;;;;;12.58;10.80;;;;;;;29.93;60.08;99769.80;1663882;86;21070;-83
2022/08/04 09:58:08;;;;;;;11.83;10.90;;;;;;;30.12;59.83;99764.87;1662988;86;21721;-82
2022/08/04 10:00:44;;;;;;;13.03;11.08;;;;;;;30.24;58.54;99761.67;1658838;84;21073;-79
2022/08/04 10:03:13;;;;;;;11.70;10.53;;;;;;;29.99;58.22;99759.02;1666922;86;21060;-79
2022/08/04 10:05:57;;;;;;;12.63;11.22;;;;;;;29.67;58.63;99765.22;1665447;84;21009;-84
2022/08/04 10:09:07;;;;;;;11.83;10.75;;;;;;;29.48;58.70;99764.38;1668611;84;21076;-82
2022/08/04 10:11:56;;;;;;;11.57;10.58;;;;;;;29.51;60.29;99759.11;1630640;86;21125;-83
2022/08/04 10:14:49;;;;;;;10.65;9.70;;;;;;;29.73;59.44;99764.06;1661587;84;21946;-79
2022/08/04 10:17:47;;;;;;;11.50;10.25;;;;;;;29.82;58.87;99758.72;1662604;84;21108;-80
2022/08/04 10:20:39;;;;;;;11.12;9.90;;;;;;;29.82;58.77;99755.98;1662323;84;21099;-87
2022/08/04 10:23:43;;;;;;;10.43;9.50;;;;;;;29.68;58.46;99755.88;1662884;84;21561;-89
2022/08/04 10:26:34;;;;;;;10.90;10.00;;;;;;;29.37;58.50;99755.48;1696285;83;21606;-87
2022/08/04 10:29:24;;;;;;;11.60;9.78;;;;;;;29.05;58.98;99762.93;1698092;82;21055;-86
2022/08/04 10:32:01;;;;;;;12.88;10.65;;;;;;;28.69;59.45;99751.83;1700298;82;21073;-82
2022/08/04 10:34:34;;;;;;;10.43;9.63;;;;;;;28.33;60.29;99756.77;1724261;82;21062;-89
2022/08/04 10:37:07;;;;;;;;;;;;;;;28.09;60.86;99761.59;1729398;80;21058;-86
2022/08/04 10:42:59;;;;;;;10.90;9.90;;;;;;;27.91;62.63;99757.63;1661790;84;21160;-87
2022/08/04 10:45:33;;;;;;;11.20;10.18;;;;;;;27.98;62.37;99752.64;1653099;84;21070;-87
2022/08/04 10:48:14;;;;;;;13.08;10.48;;;;;;;28.15;63.03;99749.52;1721114;81;21049;-84
2022/08/04 10:50:45;;;;;;;12.45;11.28;;;;;;;28.25;65.02;99745.90;1740658;79;20990;-86
2022/08/04 10:53:15;;;;;;;12.57;11.40;;;;;;;28.45;67.00;99747.63;1755770;79;21351;-88
2022/08/04 10:55:49;;;;;;;10.60;9.48;;;;;;;28.87;66.57;99742.06;1742245;80;21010;-86
2022/08/04 10:58:19;;;;;;;10.98;9.98;;;;;;;29.37;66.46;99739.87;1756125;80;21565;-86
2022/08/04 11:00:46;;;;;;;10.65;9.75;;;;;;;29.99;64.21;99743.14;1741787;81;21038;-86
2022/08/04 11:03:19;;;;;;;10.20;9.30;;;;;;;30.68;62.30;99740.65;1744929;81;20990;-85
2022/08/04 11:05:54;;;;;;;10.43;9.40;;;;;;;31.40;59.96;99735.14;1732798;81;21126;-85
2022/08/04 11:08:30;;;;;;;10.45;9.40;;;;;;;32.15;56.84;99723.33;1744665;81;21105;-85
2022/08/04 11:11:02;;;;;;;10.68;9.58;;;;;;;32.87;55.19;99724.22;1741505;80;21205;-85
2022/08/04 11:13:39;;;;;;;10.50;9.28;;;;;;;33.49;52.86;99721.36;1747421;80;20980;-84
2022/08/04 11:16:11;;;;;;;9.68;8.75;;;;;;;33.97;51.28;99711.90;1735274;81;21039;-86
2022/08/04 11:18:50;;;;;;;;;;;;;;;34.36;51.02;99710.87;1714425;82;21590;-86
2022/08/04 11:21:20;;;;;;;9.88;8.80;;;;;;;34.46;50.18;99713.30;1692688;83;20183;-86
2022/08/04 11:24:10;;;;;;;9.88;9.03;;;;;;;34.30;49.73;99722.42;1700465;82;21029;-84
2022/08/04 11:26:50;;;;;;;10.55;9.75;;;;;;;33.90;49.81;99715.12;1750191;80;21061;-84
2022/08/04 11:29:25;;;;;;;10.53;9.48;;;;;;;33.34;51.74;99723.19;1749500;80;21158;-85
2022/08/04 11:31:52;;;;;;;13.40;10.08;;;;;;;32.80;52.11;99721.95;1760451;80;21220;-83
2022/08/04 11:34:26;;;;;;;11.57;9.75;;;;;;;32.24;53.33;99720.08;1665368;84;21525;-84
2022/08/04 11:37:23;;;;;;;12.53;9.38;;;;;;;31.90;53.80;99717.29;1674976;81;21022;-82
2022/08/04 11:40:00;;;;;;;10.95;9.95;;;;;;;31.85;55.17;99714.69;1713957;81;21100;-84
2022/08/04 11:42:40;;;;;;;10.98;9.60;;;;;;;32.17;55.77;99707.34;1728000;81;21068;-82
2022/08/04 11:45:26;;;;;;;11.38;10.28;;;;;;;32.38;54.91;99708.20;1744633;81;21151;-82
2022/08/04 11:48:15;;;;;;;10.50;9.70;;;;;;;32.30;55.54;99711.95;1739218;81;21081;-83
2022/08/04 11:50:52;;;;;;;11.70;10.70;;;;;;;31.97;55.71;99711.92;1738327;81;21848;-86
2022/08/04 11:53:24;;;;;;;10.43;9.53;;;;;;;31.44;57.09;99716.12;1754494;81;21039;-82
2022/08/04 11:55:53;;;;;;;10.98;9.85;;;;;;;30.98;58.00;99716.52;1738035;81;21044;-83
2022/08/04 11:58:20;;;;;;;11.20;9.35;;;;;;;30.59;58.90;99709.56;1746242;81;21119;-81
2022/08/04 12:01:15;;;;;;;10.80;9.83;;;;;;;30.14;60.21;99714.14;1725579;81;21185;-85
2022/08/04 12:04:09;;;;;;;11.65;10.45;;;;;;;29.82;62.83;99712.74;1753124;81;21045;-88
2022/08/04 12:06:47;;;;;;;12.28;11.22;;;;;;;29.69;63.78;99706.05;1754732;80;21127;-87
2022/08/04 12:09:27;;;;;;;11.83;10.63;;;;;;;29.92;67.03;99707.09;1754833;80;21045;-85
2022/08/04 12:12:33;;;;;;;11.48;10.55;;;;;;;30.41;67.80;99705.78;1758978;80;21100;-85
2022/08/04 12:15:26;;;;;;;11.48;10.38;;;;;;;30.95;64.28;99708.35;1711891;82;21013;-88
2022/08/04 12:18:30;;;;;;;10.78;9.78;;;;;;;31.28;62.17;99708.80;1749375;81;21084;-87
2022/08/04 12:20:59;;;;;;;10.78;9.73;;;;;;;31.31;61.43;99712.28;1746417;79;20993;-89
2022/08/04 12:23:32;;;;;;;11.08;10.00;;;;;;;31.04;61.14;99715.86;1745366;79;20942;-88
2022/08/04 12:26:16;;;;;;;11.15;10.03;;;;;;;30.68;61.13;99709.13;1752898;80;21088;-90
2022/08/04 12:28:44;;;;;;;14.58;11.35;;;;;;;30.29;61.10;99716.36;1746394;80;20986;-87